Sunday, October 21, 2018, 10:28 PM CDT
Back to Local

KJOT, Joliet, Joliet Regional Airport

Location: Joliet, IL, United States Lat: 41.518
Local Time: 10:28 PM CDT ( 3:28 GMT) Lon: -88.175
Time Zone: US/Central Elev: 580 ft

Show me the last for .
Show Decoded

2018-10-21 22:15 METAR KJOT 220315Z AUTO 19003KT 10SM CLR 05/M03 A3013 RMK AO2 T00511026 =
2018-10-21 21:55 METAR KJOT 220255Z AUTO 21003KT 10SM CLR 06/M03 A3013 RMK AO2 T00621028 =
2018-10-21 21:35 METAR KJOT 220235Z AUTO 22003KT 10SM CLR 07/M03 A3013 RMK AO2 T00711030 =
2018-10-21 21:15 METAR KJOT 220215Z AUTO 23006KT 10SM CLR 08/M03 A3012 RMK AO2 T00781033 =
2018-10-21 20:55 METAR KJOT 220155Z AUTO 23006KT 10SM CLR 08/M03 A3011 RMK AO2 T00841034 =
2018-10-21 20:35 METAR KJOT 220135Z AUTO 21005KT 10SM CLR 08/M03 A3011 RMK AO2 T00821029 =
2018-10-21 20:15 METAR KJOT 220115Z AUTO 20005KT 10SM CLR 08/M03 A3010 RMK AO2 T00801027 =
2018-10-21 19:55 METAR KJOT 220055Z AUTO 19007KT 10SM CLR 08/M03 A3010 RMK AO2 T00801034 =
2018-10-21 19:35 METAR KJOT 220035Z AUTO 20006KT 10SM CLR 08/M03 A3012 RMK AO2 T00831035 =
2018-10-21 19:15 METAR KJOT 220015Z AUTO 20008KT 10SM CLR 09/M04 A3012 RMK AO2 T00851036 =
2018-10-21 18:55 METAR KJOT 212355Z AUTO 20006KT 10SM CLR 08/M04 A3013 RMK AO2 T00821036 10115
                 20081 =
2018-10-21 18:35 METAR KJOT 212335Z AUTO 21006KT 10SM CLR 09/M04 A3013 RMK AO2 T00891039 =
2018-10-21 18:15 METAR KJOT 212315Z AUTO 22004KT 10SM CLR 10/M04 A3014 RMK AO2 T00951040 =
2018-10-21 17:55 METAR KJOT 212255Z AUTO 21007KT 10SM CLR 10/M04 A3014 RMK AO2 T01001045 =
2018-10-21 17:35 METAR KJOT 212235Z AUTO 21006KT 10SM CLR 10/M05 A3014 RMK AO2 T01041049 =
2018-10-21 17:15 METAR KJOT 212215Z AUTO 20012G15KT 10SM CLR 11/M05 A3014 RMK AO2 T01071047 =
2018-10-21 16:55 METAR KJOT 212155Z AUTO 21007G16KT 10SM CLR 11/M05 A3015 RMK AO2 T01101049 =
2018-10-21 16:35 METAR KJOT 212135Z AUTO 21009G14KT 10SM CLR 11/M05 A3016 RMK AO2 T01111055 =
2018-10-21 16:15 METAR KJOT 212115Z AUTO 22007KT 10SM CLR 11/M05 A3017 RMK AO2 T01131055 =
2018-10-21 15:55 METAR KJOT 212055Z AUTO 23007G14KT 10SM CLR 11/M06 A3018 RMK AO2 T01111057 =
2018-10-21 15:35 METAR KJOT 212035Z AUTO 20009KT 10SM CLR 11/M06 A3019 RMK AO2 T01111058 =
2018-10-21 15:15 METAR KJOT 212015Z AUTO 21007KT 180V240 10SM CLR 11/M05 A3021 RMK AO2 T01121049
                 =
2018-10-21 14:55 METAR KJOT 211955Z AUTO 21008G14KT 10SM CLR 11/M05 A3021 RMK AO2 T01061053 =
2018-10-21 14:35 METAR KJOT 211935Z AUTO 23006KT 10SM CLR 10/M05 A3022 RMK AO2 T01041050 =
2018-10-21 14:15 METAR KJOT 211915Z AUTO 23006KT 10SM CLR 10/M05 A3024 RMK AO2 T00971053 =
2018-10-21 13:55 METAR KJOT 211855Z AUTO 21008KT 10SM CLR 10/M04 A3025 RMK AO2 T00961045 =
2018-10-21 13:35 METAR KJOT 211835Z AUTO 23007KT 10SM CLR 09/M06 A3026 RMK AO2 T00901056 =
2018-10-21 13:15 METAR KJOT 211815Z AUTO 22010G14KT 10SM CLR 09/M06 A3028 RMK AO2 T00861056 =
2018-10-21 12:55 METAR KJOT 211755Z AUTO 24008KT 10SM CLR 08/M06 A3030 RMK AO2 T00841056 10086
                 21054 =
2018-10-21 12:35 METAR KJOT 211735Z AUTO 23007KT 10SM CLR 08/M05 A3031 RMK AO2 T00771051 =
2018-10-21 12:15 METAR KJOT 211715Z AUTO 24008KT 10SM CLR 08/M05 A3032 RMK AO2 T00771046 =
2018-10-21 11:55 METAR KJOT 211655Z AUTO 21006KT 10SM CLR 07/M05 A3034 RMK AO2 T00701050 =
2018-10-21 11:35 METAR KJOT 211635Z AUTO 24006KT 10SM CLR 07/M05 A3035 RMK AO2 T00651050 =
2018-10-21 11:15 METAR KJOT 211615Z AUTO 24006KT 10SM CLR 06/M05 A3036 RMK AO2 T00621055 =
2018-10-21 10:55 METAR KJOT 211555Z AUTO 24003KT 10SM CLR 06/M05 A3036 RMK AO2 T00571051 =
2018-10-21 10:35 METAR KJOT 211535Z AUTO 23005KT 10SM CLR 05/M05 A3036 RMK AO2 T00501049 =
2018-10-21 10:15 METAR KJOT 211515Z AUTO 26005KT 10SM CLR 05/M06 A3037 RMK AO2 T00471056 =
2018-10-21 09:55 METAR KJOT 211455Z AUTO 24003KT 10SM CLR 04/M04 A3039 RMK AO2 T00381044 =
2018-10-21 09:35 METAR KJOT 211435Z AUTO 20003KT 10SM CLR 03/M05 A3039 RMK AO2 T00301046 =
2018-10-21 09:15 METAR KJOT 211415Z AUTO 24003KT 10SM CLR 02/M04 A3039 RMK AO2 T00181041 =
2018-10-21 08:55 METAR KJOT 211355Z AUTO 00000KT 10SM CLR 00/M03 A3038 RMK AO2 T00031031 =
2018-10-21 08:35 METAR KJOT 211335Z AUTO 00000KT 10SM CLR 00/M03 A3038 RMK AO2 T10051034 =
2018-10-21 08:15 METAR KJOT 211315Z AUTO 00000KT 10SM CLR M02/M03 A3039 RMK AO2 T10181032 =
2018-10-21 07:55 METAR KJOT 211255Z AUTO 00000KT 10SM CLR M04/M04 A3038 RMK AO2 T10361045 =
2018-10-21 07:35 METAR KJOT 211235Z AUTO 00000KT 10SM CLR M04/M05 A3038 RMK AO2 T10451051 =
2018-10-21 07:15 METAR KJOT 211215Z AUTO 00000KT 10SM CLR M05/M05 A3038 RMK AO2 T10491055 =
2018-10-21 06:55 METAR KJOT 211155Z AUTO 00000KT 10SM CLR M04/M05 A3038 RMK AO2 T10431052 11007
                 21050 =
2018-10-21 06:35 METAR KJOT 211135Z AUTO 00000KT 10SM CLR M04/M05 A3038 RMK AO2 T10401050 =
2018-10-21 06:15 METAR KJOT 211115Z AUTO 00000KT 10SM CLR M05/M06 A3038 RMK AO2 T10471057 =
2018-10-21 05:55 METAR KJOT 211055Z AUTO 00000KT 10SM CLR M05/M06 A3039 RMK AO2 T10501062 =
2018-10-21 05:35 METAR KJOT 211035Z AUTO 00000KT 10SM CLR M03/M05 A3039 RMK AO2 T10281051 =
2018-10-21 05:15 METAR KJOT 211015Z AUTO 00000KT 10SM CLR M04/M06 A3038 RMK AO2 T10391059 =
2018-10-21 04:55 METAR KJOT 210955Z AUTO 00000KT 10SM CLR M02/M05 A3037 RMK AO2 T10191055 =
2018-10-21 04:35 METAR KJOT 210935Z AUTO 00000KT 10SM CLR M02/M05 A3038 RMK AO2 T10171055 =
2018-10-21 04:15 METAR KJOT 210915Z AUTO 00000KT 10SM CLR M02/M05 A3038 RMK AO2 T10171055 =
2018-10-21 03:55 METAR KJOT 210855Z AUTO 00000KT 10SM CLR M01/M05 A3037 RMK AO2 T10151055 =
2018-10-21 03:35 METAR KJOT 210835Z AUTO 00000KT 10SM CLR M01/M05 A3038 RMK AO2 T10151053 =
2018-10-21 03:15 METAR KJOT 210815Z AUTO 00000KT 10SM CLR M01/M05 A3037 RMK AO2 T10131052 =
2018-10-21 02:55 METAR KJOT 210755Z AUTO 00000KT 10SM CLR M01/M05 A3036 RMK AO2 T10131055 =
2018-10-21 02:35 METAR KJOT 210735Z AUTO 00000KT 10SM CLR M01/M05 A3037 RMK AO2 T10101054 =
2018-10-21 02:15 METAR KJOT 210715Z AUTO 00000KT 10SM CLR M01/M05 A3036 RMK AO2 T10101055 =
2018-10-21 01:55 METAR KJOT 210655Z AUTO 00000KT 10SM CLR M01/M05 A3036 RMK AO2 T10111051 =
2018-10-21 01:35 METAR KJOT 210635Z AUTO 00000KT 10SM CLR M01/M05 A3035 RMK AO2 T10101053 =
2018-10-21 01:15 METAR KJOT 210615Z AUTO 00000KT 10SM CLR M01/M05 A3036 RMK AO2 T10121050 =
2018-10-21 00:55 METAR KJOT 210555Z AUTO 00000KT 10SM CLR M01/M05 A3036 RMK AO2 T10071051 10044
                 21017 401261017 =
2018-10-21 00:35 METAR KJOT 210535Z AUTO 00000KT 10SM CLR M01/M06 A3035 RMK AO2 T10091056 =
2018-10-21 00:15 METAR KJOT 210515Z AUTO 00000KT 10SM CLR 00/M06 A3034 RMK AO2 T00041057 =
2018-10-20 23:55 METAR KJOT 210455Z AUTO 00000KT 10SM CLR 00/M05 A3035 RMK AO2 T00021055 =
2018-10-20 23:35 METAR KJOT 210435Z AUTO 00000KT 10SM CLR 00/M05 A3034 RMK AO2 T00031053 =
2018-10-20 23:15 METAR KJOT 210415Z AUTO 00000KT 10SM CLR 01/M05 A3034 RMK AO2 T00051052 =
2018-10-20 22:55 METAR KJOT 210355Z AUTO 00000KT 10SM CLR 01/M05 A3034 RMK AO2 T00081055 =
2018-10-20 22:35 METAR KJOT 210335Z AUTO 00000KT 10SM CLR 01/M05 A3033 RMK AO2 T00101055 =

Support USWX by starting your Amazon purchase here.